KESF/ESF METAR and TAF weather

Enter ICAO airport designator
Station Type Date Time Source
KESF METAR 2021/03/06 03:53 UTC NOAA

KESF 060353Z AUTO 01005KT 7SM -RA OVC065 11/09 A3012 RMK AO2 SLP198 P0007 T01110094


Station Type Date Time Source
KESF Decoded METAR 2021/03/06 03:53 UTC NOAA

ALEXANDRIA ESLER RGNL AIRPORT , LA, United States (KESF) 31-24N 092-18W 28M
Mar 05, 2021 - 10:53 PM EST / 2021.03.06 0353 UTC
Wind: from the N (010 degrees) at 6 MPH (5 KT):0
Visibility: 7 mile(s):0
Sky conditions: overcast
Weather: light rain
Precipitation last hour: 0.07 inches
Temperature: 52.0 F (11.1 C)
Dew Point: 48.9 F (9.4 C)
Relative Humidity: 89%
Pressure (altimeter): 30.12 in. Hg (1019 hPa)
ob: KESF 060353Z AUTO 01005KT 7SM -RA OVC065 11/09 A3012 RMK AO2 SLP198 P0007 T01110094
cycle: 4

Station Type Date Time Source
KESF TAF UTC NOAA

Error!

Example: see airport list